createdAt,value
2022-10-13T00:00:50.367Z,13.33
2022-10-13T00:03:18.019Z,14.47
2022-10-13T00:05:49.696Z,11.73
2022-10-13T00:08:19.846Z,14.80
2022-10-13T00:10:49.371Z,12.70
2022-10-13T00:13:20.530Z,11.90
2022-10-13T00:15:47.965Z,15.27
2022-10-13T00:18:16.162Z,11.47
2022-10-13T00:20:45.743Z,15.50
2022-10-13T00:23:13.929Z,14.00
2022-10-13T00:25:45.872Z,13.67
2022-10-13T00:28:13.773Z,10.07
2022-10-13T00:30:40.857Z,13.50
2022-10-13T00:33:08.234Z,12.20
2022-10-13T00:35:39.726Z,14.43
2022-10-13T00:38:06.564Z,15.00
2022-10-13T00:40:33.284Z,14.63
2022-10-13T00:43:00.073Z,16.37
2022-10-13T00:45:29.612Z,17.00
2022-10-13T00:48:00.761Z,15.70
2022-10-13T00:50:38.004Z,13.97
2022-10-13T00:53:05.883Z,12.53
2022-10-13T00:55:37.004Z,16.47
2022-10-13T00:58:07.883Z,17.97
2022-10-13T01:00:35.493Z,19.73
2022-10-13T01:03:03.287Z,12.83
2022-10-13T01:05:31.009Z,18.37
2022-10-13T01:07:59.634Z,15.10
2022-10-13T01:11:00.480Z,11.97
2022-10-13T01:13:39.011Z,16.37
2022-10-13T01:16:12.712Z,10.87
2022-10-13T01:18:58.218Z,17.00
2022-10-13T01:21:28.456Z,15.13
2022-10-13T01:24:27.528Z,14.33
2022-10-13T01:27:31.448Z,15.97
2022-10-13T01:30:21.017Z,16.63
2022-10-13T01:32:56.801Z,13.07
2022-10-13T01:36:02.432Z,13.80
2022-10-13T01:38:41.471Z,16.23
2022-10-13T01:41:17.229Z,12.47
2022-10-13T01:43:50.666Z,14.40
2022-10-13T01:46:25.043Z,16.43
2022-10-13T01:48:55.242Z,18.17
2022-10-13T01:51:25.137Z,19.73
2022-10-13T01:53:52.912Z,17.57
2022-10-13T01:56:19.697Z,16.33
2022-10-13T01:58:49.954Z,11.70
2022-10-13T02:01:31.747Z,22.27
2022-10-13T02:04:17.680Z,16.80
2022-10-13T02:07:01.267Z,14.97
2022-10-13T02:09:37.595Z,15.93
2022-10-13T02:12:17.187Z,19.37
2022-10-13T02:14:46.958Z,15.57
2022-10-13T02:17:15.383Z,16.77
2022-10-13T02:19:45.386Z,18.87
2022-10-13T02:22:15.602Z,18.27
2022-10-13T02:24:42.611Z,15.20
2022-10-13T02:27:09.662Z,17.83
2022-10-13T02:29:53.745Z,15.57
2022-10-13T02:32:21.535Z,20.13
2022-10-13T02:34:49.022Z,16.27
2022-10-13T02:37:15.965Z,14.10
2022-10-13T02:39:42.919Z,15.83
2022-10-13T02:42:11.655Z,18.60
2022-10-13T02:44:40.100Z,15.23
2022-10-13T02:47:06.906Z,20.10
2022-10-13T02:49:33.717Z,20.97
2022-10-13T02:52:00.840Z,18.03
2022-10-13T02:54:27.488Z,16.03
2022-10-13T02:56:54.419Z,16.70
2022-10-13T02:59:21.146Z,16.37
2022-10-13T03:01:47.916Z,21.57
2022-10-13T03:04:14.745Z,13.60
2022-10-13T03:06:41.495Z,15.53
2022-10-13T03:09:09.533Z,16.27
2022-10-13T03:11:37.260Z,19.87
2022-10-13T03:14:03.983Z,20.80
2022-10-13T03:16:30.709Z,15.70
2022-10-13T03:18:57.640Z,18.30
2022-10-13T03:21:24.389Z,18.40
2022-10-13T03:23:51.473Z,14.60
2022-10-13T03:26:19.057Z,19.33
2022-10-13T03:28:50.628Z,17.87
2022-10-13T03:31:18.172Z,17.93
2022-10-13T03:33:46.945Z,14.13
2022-10-13T03:36:13.833Z,20.40
2022-10-13T03:38:42.499Z,14.80
2022-10-13T03:41:15.407Z,20.17
2022-10-13T03:43:44.297Z,16.20
2022-10-13T03:46:14.151Z,14.10
2022-10-13T03:48:41.160Z,14.70
2022-10-13T03:51:10.642Z,16.47
2022-10-13T03:53:41.768Z,14.33
2022-10-13T03:56:14.424Z,13.87
2022-10-13T03:58:53.555Z,15.70
2022-10-13T04:01:22.887Z,19.03
2022-10-13T04:03:50.698Z,15.70
2022-10-13T04:06:17.768Z,20.03
2022-10-13T04:08:44.541Z,13.77
2022-10-13T04:11:13.729Z,21.20
2022-10-13T04:13:42.793Z,18.13
2022-10-13T04:16:18.594Z,17.07
2022-10-13T04:18:45.911Z,14.50
2022-10-13T04:21:14.772Z,20.43
2022-10-13T04:23:42.198Z,16.20
2022-10-13T04:26:19.372Z,14.47
2022-10-13T04:28:47.961Z,13.83
2022-10-13T04:31:15.351Z,14.03
2022-10-13T04:33:42.629Z,17.83
2022-10-13T04:36:12.190Z,18.50
2022-10-13T04:38:39.475Z,17.07
2022-10-13T04:41:07.217Z,20.23
2022-10-13T04:43:34.983Z,14.60
2022-10-13T04:46:02.674Z,20.13
2022-10-13T04:48:29.500Z,17.73
2022-10-13T04:51:09.103Z,20.00
2022-10-13T04:53:36.842Z,19.53
2022-10-13T04:56:09.913Z,18.87
2022-10-13T04:58:37.742Z,17.37
2022-10-13T05:01:06.907Z,17.07
2022-10-13T05:03:34.495Z,19.20
2022-10-13T05:06:01.702Z,20.50
2022-10-13T05:08:28.496Z,18.03
2022-10-13T05:11:01.995Z,16.67
2022-10-13T05:13:29.766Z,16.73
2022-10-13T05:15:59.046Z,14.87
2022-10-13T05:18:25.867Z,16.20
2022-10-13T05:20:52.583Z,21.10
2022-10-13T05:23:19.305Z,16.63
2022-10-13T05:25:46.084Z,15.10
2022-10-13T05:28:14.732Z,15.73
2022-10-13T05:30:41.563Z,16.30
2022-10-13T05:33:09.233Z,21.07
2022-10-13T05:35:35.984Z,14.97
2022-10-13T05:38:02.901Z,18.13
2022-10-13T05:40:29.793Z,17.00
2022-10-13T05:43:00.482Z,14.67
2022-10-13T05:45:29.568Z,19.03
2022-10-13T05:47:56.333Z,21.83
2022-10-13T05:50:23.133Z,19.77
2022-10-13T05:52:51.274Z,17.77
2022-10-13T05:55:19.127Z,19.50
2022-10-13T05:57:51.466Z,18.70
2022-10-13T06:00:20.441Z,22.97
2022-10-13T06:02:49.885Z,21.37
2022-10-13T06:05:19.647Z,21.53
2022-10-13T06:07:50.060Z,17.63
2022-10-13T06:10:17.063Z,19.93
2022-10-13T06:12:44.222Z,20.57
2022-10-13T06:15:11.622Z,25.80
2022-10-13T06:17:39.556Z,22.57
2022-10-13T06:20:07.974Z,26.30
2022-10-13T06:22:35.961Z,20.17
2022-10-13T06:25:04.548Z,22.17
2022-10-13T06:27:31.785Z,25.53
2022-10-13T06:29:59.445Z,22.10
2022-10-13T06:32:26.230Z,25.43
2022-10-13T06:34:52.979Z,22.27
2022-10-13T06:37:24.655Z,21.53
2022-10-13T06:39:53.775Z,22.93
2022-10-13T06:42:21.131Z,23.33
2022-10-13T06:45:00.600Z,20.33
2022-10-13T06:47:27.429Z,18.90
2022-10-13T06:49:54.392Z,22.77
2022-10-13T06:52:21.562Z,23.20
2022-10-13T06:54:48.435Z,21.50
2022-10-13T06:57:15.538Z,22.53
2022-10-13T06:59:42.399Z,22.13
2022-10-13T07:02:09.425Z,22.43
2022-10-13T07:04:36.128Z,23.40
2022-10-13T07:07:03.347Z,24.80
2022-10-13T07:09:31.462Z,29.30
2022-10-13T07:11:59.384Z,25.20
2022-10-13T07:14:26.382Z,20.93
2022-10-13T07:16:53.307Z,26.17
2022-10-13T07:19:20.204Z,24.27
2022-10-13T07:21:46.936Z,24.83
2022-10-13T07:24:13.721Z,24.00
2022-10-13T07:26:40.561Z,31.00
2022-10-13T07:29:08.067Z,19.73
2022-10-13T07:31:34.969Z,22.83
2022-10-13T07:34:01.950Z,21.47
2022-10-13T07:36:29.714Z,25.03
2022-10-13T07:38:56.544Z,21.43
2022-10-13T07:41:23.358Z,19.83
2022-10-13T07:43:55.426Z,25.03
2022-10-13T07:46:22.243Z,25.10
2022-10-13T07:48:49.167Z,28.07
2022-10-13T07:51:15.969Z,24.93
2022-10-13T07:53:43.327Z,22.60
2022-10-13T07:56:12.468Z,23.27
2022-10-13T07:58:42.153Z,25.10
2022-10-13T08:01:09.688Z,22.40
2022-10-13T08:03:42.925Z,26.33
2022-10-13T08:06:16.942Z,23.67
2022-10-13T08:08:43.707Z,24.13
2022-10-13T08:11:16.556Z,24.00
2022-10-13T08:13:53.117Z,25.07
2022-10-13T08:16:23.301Z,20.40
2022-10-13T08:18:50.687Z,21.23
2022-10-13T08:24:09.040Z,22.63
2022-10-13T08:26:35.914Z,20.47
2022-10-13T08:29:20.661Z,21.67
2022-10-13T08:34:16.183Z,21.50
2022-10-13T08:36:43.711Z,20.83
2022-10-13T08:39:10.769Z,23.13
2022-10-13T08:41:40.517Z,21.13
2022-10-13T08:47:10.866Z,23.07
2022-10-13T08:49:39.514Z,19.97
2022-10-13T08:52:18.463Z,19.80
2022-10-13T08:54:45.530Z,20.77
2022-10-13T08:57:12.385Z,18.57
2022-10-13T08:59:39.467Z,16.83
2022-10-13T09:02:13.717Z,16.43
2022-10-13T09:04:44.265Z,19.27
2022-10-13T09:07:22.281Z,19.50
2022-10-13T09:09:52.010Z,18.97
2022-10-13T09:12:26.900Z,17.40
2022-10-13T09:15:12.716Z,17.17
2022-10-13T09:17:41.357Z,18.90
2022-10-13T09:20:27.712Z,18.43
2022-10-13T09:23:04.244Z,18.73
2022-10-13T09:25:42.013Z,20.90
2022-10-13T09:28:30.308Z,15.77
2022-10-13T09:31:14.138Z,17.50
2022-10-13T09:33:41.239Z,18.80
2022-10-13T09:36:15.870Z,19.38
2022-10-13T09:39:06.990Z,17.90
2022-10-13T09:41:35.058Z,14.38
2022-10-13T09:44:13.078Z,19.08
2022-10-13T09:46:48.559Z,16.58
2022-10-13T09:49:30.407Z,19.48
2022-10-13T09:52:19.550Z,17.52
2022-10-13T09:54:50.161Z,19.02
2022-10-13T09:57:25.565Z,22.17
2022-10-13T10:00:22.175Z,21.02
2022-10-13T10:03:13.276Z,21.88
2022-10-13T10:05:56.252Z,19.67
2022-10-13T10:08:33.694Z,21.63
2022-10-13T10:11:15.439Z,22.50
2022-10-13T10:13:42.332Z,20.08
2022-10-13T10:16:22.514Z,20.75
2022-10-13T10:18:58.911Z,21.58
2022-10-13T10:21:41.821Z,23.55
2022-10-13T10:24:38.693Z,17.27
2022-10-13T10:27:16.181Z,20.55
2022-10-13T10:30:03.156Z,23.45
2022-10-13T10:32:32.878Z,16.58
2022-10-13T10:35:12.460Z,19.98
2022-10-13T10:38:07.157Z,16.70
2022-10-13T10:40:56.231Z,20.17
2022-10-13T10:43:47.301Z,20.00
2022-10-13T10:46:28.023Z,20.25
2022-10-13T10:48:58.866Z,19.70
2022-10-13T10:51:31.735Z,19.17
2022-10-13T10:54:08.272Z,19.02
2022-10-13T10:56:40.665Z,21.17
2022-10-13T10:59:19.518Z,21.03
2022-10-13T11:01:59.986Z,18.83
2022-10-13T11:04:29.734Z,21.87
2022-10-13T11:06:56.512Z,17.87
2022-10-13T11:09:41.676Z,18.53
2022-10-13T11:12:21.194Z,20.20
2022-10-13T11:14:54.274Z,21.27
2022-10-13T11:17:32.237Z,20.15
2022-10-13T11:20:00.361Z,20.80
2022-10-13T11:22:28.904Z,17.38
2022-10-13T11:25:20.477Z,18.63
2022-10-13T11:27:47.215Z,19.47
2022-10-13T11:30:41.187Z,17.25
2022-10-13T11:33:32.581Z,19.90
2022-10-13T11:36:41.636Z,15.07
2022-10-13T11:39:27.990Z,15.38
2022-10-13T11:42:00.921Z,18.92
2022-10-13T11:44:37.957Z,17.63
2022-10-13T11:47:40.876Z,17.55
2022-10-13T11:50:19.290Z,18.13
2022-10-13T11:52:52.505Z,17.50
2022-10-13T11:55:42.885Z,16.58
2022-10-13T11:58:16.039Z,13.85
2022-10-13T12:00:51.600Z,14.60
2022-10-13T12:03:27.649Z,16.48
2022-10-13T12:05:59.276Z,15.73
2022-10-13T12:08:27.933Z,16.25
2022-10-13T12:10:57.422Z,17.02
2022-10-13T12:13:30.416Z,14.73
2022-10-13T12:16:08.153Z,13.43
2022-10-13T12:18:39.139Z,16.63
2022-10-13T12:21:08.902Z,16.70
2022-10-13T12:23:35.977Z,15.07
2022-10-13T12:26:04.010Z,17.13
2022-10-13T12:28:58.346Z,15.75
2022-10-13T12:31:28.468Z,12.80
2022-10-13T12:33:57.980Z,12.57
2022-10-13T12:36:33.031Z,15.23
2022-10-13T12:39:07.728Z,14.25
2022-10-13T12:41:38.398Z,14.13
2022-10-13T12:44:07.612Z,17.48
2022-10-13T12:46:53.891Z,13.05
2022-10-13T12:49:26.417Z,13.18
2022-10-13T12:52:19.196Z,13.27
2022-10-13T12:54:53.623Z,12.63
2022-10-13T12:57:38.081Z,13.10
2022-10-13T13:00:22.296Z,14.10
2022-10-13T13:02:57.587Z,13.25
2022-10-13T13:05:45.807Z,14.00
2022-10-13T13:08:31.787Z,13.90
2022-10-13T13:11:01.061Z,13.65
2022-10-13T13:13:28.482Z,14.00
2022-10-13T13:16:16.318Z,12.68
2022-10-13T13:18:44.763Z,13.48
2022-10-13T13:21:14.065Z,15.80
2022-10-13T13:23:42.892Z,13.27
2022-10-13T13:26:13.872Z,12.43
2022-10-13T13:28:49.974Z,10.98
2022-10-13T13:31:18.676Z,12.70
2022-10-13T13:33:46.703Z,12.73
2022-10-13T13:36:25.392Z,12.18
2022-10-13T13:38:53.825Z,13.30
2022-10-13T13:41:21.030Z,15.68
2022-10-13T13:43:49.407Z,12.07
2022-10-13T13:46:19.391Z,11.95
2022-10-13T13:48:46.276Z,12.00
2022-10-13T13:51:13.060Z,12.13
2022-10-13T13:53:40.393Z,12.55
2022-10-13T13:56:12.860Z,12.25
2022-10-13T13:58:39.662Z,12.68
2022-10-13T14:01:06.434Z,13.70
2022-10-13T14:03:33.249Z,11.45
2022-10-13T14:06:00.070Z,11.82
2022-10-13T14:08:33.306Z,14.50
2022-10-13T14:11:00.312Z,12.27
2022-10-13T14:13:27.186Z,13.98
2022-10-13T14:15:58.231Z,12.20
2022-10-13T14:18:25.867Z,13.07
2022-10-13T14:20:52.776Z,14.10
2022-10-13T14:23:19.590Z,16.38
2022-10-13T14:25:46.438Z,13.55
2022-10-13T14:28:17.324Z,14.20
2022-10-13T14:30:45.226Z,14.48
2022-10-13T14:33:11.954Z,12.85
2022-10-13T14:35:38.703Z,15.07
2022-10-13T14:38:06.103Z,15.88
2022-10-13T14:40:33.839Z,14.45
2022-10-13T14:43:00.736Z,12.88
2022-10-13T14:45:27.475Z,11.05
2022-10-13T14:47:54.186Z,11.00
2022-10-13T14:50:20.947Z,8.88
2022-10-13T14:52:51.928Z,5.60
2022-10-13T14:55:18.654Z,3.78
2022-10-13T14:57:45.457Z,4.57
2022-10-13T15:00:14.502Z,4.30
2022-10-13T15:02:42.446Z,3.70
2022-10-13T15:05:09.399Z,2.50
2022-10-13T15:07:40.804Z,3.15
2022-10-13T15:10:08.480Z,2.83
2022-10-13T15:12:35.358Z,2.58
2022-10-13T15:15:02.590Z,5.67
2022-10-13T15:17:31.184Z,1.88
2022-10-13T15:19:58.157Z,3.85
2022-10-13T15:22:25.441Z,4.32
2022-10-13T15:24:52.217Z,3.30
2022-10-13T15:27:19.004Z,3.13
2022-10-13T15:29:46.029Z,3.77
2022-10-13T15:32:18.147Z,4.30
2022-10-13T15:34:49.553Z,3.75
2022-10-13T15:37:16.452Z,4.17
2022-10-13T15:39:43.440Z,3.20
2022-10-13T15:42:11.795Z,6.03
2022-10-13T15:47:25.514Z,2.53
2022-10-13T15:49:52.308Z,3.08
2022-10-13T15:52:19.407Z,4.72
2022-10-13T15:54:47.062Z,4.65
2022-10-13T15:57:14.578Z,4.70
2022-10-13T15:59:41.319Z,2.90
2022-10-13T16:02:10.326Z,5.32
2022-10-13T16:04:37.742Z,1.85
2022-10-13T16:07:05.080Z,4.35
2022-10-13T16:09:31.837Z,4.70
2022-10-13T16:11:58.633Z,7.73
2022-10-13T16:14:25.413Z,5.00
2022-10-13T16:16:52.316Z,4.50
2022-10-13T16:19:19.038Z,5.25
2022-10-13T16:21:46.919Z,3.13
2022-10-13T16:24:14.743Z,3.23
2022-10-13T16:26:41.521Z,3.87
2022-10-13T16:29:08.341Z,3.50
2022-10-13T16:31:35.291Z,2.73
2022-10-13T16:34:02.309Z,4.97
2022-10-13T16:36:29.038Z,3.87
2022-10-13T16:38:56.090Z,5.40
2022-10-13T16:41:23.962Z,10.60
2022-10-13T16:43:50.897Z,7.10
2022-10-13T16:46:19.869Z,2.70
2022-10-13T16:48:47.224Z,2.93
2022-10-13T16:51:21.462Z,7.78
2022-10-13T16:53:52.783Z,5.33
2022-10-13T16:56:22.239Z,3.97
2022-10-13T16:59:01.163Z,2.40
2022-10-13T17:01:28.682Z,3.73
2022-10-13T17:03:56.168Z,8.10
2022-10-13T17:06:25.442Z,5.17
2022-10-13T17:08:57.318Z,5.03
2022-10-13T17:11:27.215Z,4.13
2022-10-13T17:13:56.716Z,1.90
2022-10-13T17:16:24.253Z,2.65
2022-10-13T17:18:50.979Z,2.80
2022-10-13T17:21:19.135Z,3.80
2022-10-13T17:23:48.622Z,7.97
2022-10-13T17:26:17.349Z,7.67
2022-10-13T17:28:44.971Z,4.37
2022-10-13T17:31:17.437Z,5.20
2022-10-13T17:33:44.959Z,3.60
2022-10-13T17:36:18.382Z,5.40
2022-10-13T17:38:45.982Z,3.53
2022-10-13T17:41:12.915Z,3.57
2022-10-13T17:43:48.174Z,5.10
2022-10-13T17:49:03.149Z,4.77
2022-10-13T17:51:29.965Z,6.00
2022-10-13T17:54:00.456Z,5.15
2022-10-13T17:56:27.608Z,6.07
2022-10-13T17:58:54.957Z,5.50
2022-10-13T18:01:26.817Z,4.80
2022-10-13T18:03:56.671Z,6.35
2022-10-13T18:06:27.952Z,6.55
2022-10-13T18:08:54.761Z,7.90
2022-10-13T18:11:23.745Z,5.85
2022-10-13T18:13:51.301Z,5.63
2022-10-13T18:16:23.582Z,6.60
2022-10-13T18:18:51.656Z,4.50
2022-10-13T18:21:22.334Z,3.55
2022-10-13T18:23:52.983Z,4.67
2022-10-13T18:26:20.156Z,5.40
2022-10-13T18:28:49.259Z,5.40
2022-10-13T18:31:46.951Z,6.73
2022-10-13T18:34:16.910Z,4.50
2022-10-13T18:36:50.625Z,5.13
2022-10-13T18:39:26.515Z,3.20
2022-10-13T18:41:54.663Z,4.00
2022-10-13T18:44:22.935Z,6.77
2022-10-13T18:46:51.778Z,3.07
2022-10-13T18:49:21.685Z,4.03
2022-10-13T18:51:51.557Z,4.77
2022-10-13T18:54:18.635Z,5.60
2022-10-13T18:56:45.423Z,5.97
2022-10-13T18:59:12.563Z,2.90
2022-10-13T19:01:40.869Z,2.95
2022-10-13T19:04:08.637Z,4.37
2022-10-13T19:06:35.535Z,5.13
2022-10-13T19:09:07.687Z,3.60
2022-10-13T19:11:37.055Z,6.50
2022-10-13T19:14:06.942Z,4.57
2022-10-13T19:16:36.796Z,4.33
2022-10-13T19:19:04.399Z,3.63
2022-10-13T19:21:32.672Z,6.10
2022-10-13T19:24:00.007Z,3.90
2022-10-13T19:26:31.339Z,4.60
2022-10-13T19:29:07.748Z,4.40
2022-10-13T19:31:36.149Z,7.27
2022-10-13T19:34:07.112Z,4.37
2022-10-13T19:36:41.219Z,4.10
2022-10-13T19:39:13.675Z,6.03
2022-10-13T19:41:40.648Z,4.97
2022-10-13T19:44:07.651Z,6.43
2022-10-13T19:46:42.158Z,5.65
2022-10-13T19:49:10.225Z,4.87
2022-10-13T19:51:41.905Z,11.10
2022-10-13T19:54:09.426Z,6.13
2022-10-13T19:56:36.362Z,6.87
2022-10-13T19:59:06.331Z,4.87
2022-10-13T20:01:40.001Z,5.40
2022-10-13T20:04:14.202Z,7.90
2022-10-13T20:06:43.639Z,8.50
2022-10-13T20:09:10.431Z,6.57
2022-10-13T20:11:37.260Z,5.23
2022-10-13T20:14:04.402Z,8.57
2022-10-13T20:16:31.346Z,5.20
2022-10-13T20:18:59.759Z,8.30
2022-10-13T20:21:28.016Z,5.50
2022-10-13T20:23:55.408Z,7.77
2022-10-13T20:26:23.091Z,8.37
2022-10-13T20:28:51.651Z,8.10
2022-10-13T20:31:20.652Z,7.30
2022-10-13T20:33:49.574Z,11.97
2022-10-13T20:36:19.028Z,9.40
2022-10-13T20:38:47.797Z,7.00
2022-10-13T20:41:27.038Z,11.13
2022-10-13T20:43:55.774Z,9.03
2022-10-13T20:46:23.773Z,7.57
2022-10-13T20:49:09.883Z,7.90
2022-10-13T20:51:37.149Z,8.93
2022-10-13T20:54:04.156Z,12.90
2022-10-13T20:56:31.022Z,9.97
2022-10-13T20:59:06.345Z,10.02
2022-10-13T21:01:33.983Z,10.03
2022-10-13T21:04:00.803Z,10.63
2022-10-13T21:06:27.921Z,12.67
2022-10-13T21:08:56.390Z,8.83
2022-10-13T21:11:24.093Z,11.00
2022-10-13T21:13:52.091Z,8.40
2022-10-13T21:16:22.239Z,10.73
2022-10-13T21:18:50.679Z,7.43
2022-10-13T21:21:22.907Z,6.47
2022-10-13T21:23:55.305Z,7.93
2022-10-13T21:26:24.216Z,8.98
2022-10-13T21:28:51.298Z,7.60
2022-10-13T21:31:19.739Z,8.00
2022-10-13T21:33:46.509Z,8.03
2022-10-13T21:36:19.260Z,7.75
2022-10-13T21:38:47.478Z,6.40
2022-10-13T21:41:14.980Z,5.80
2022-10-13T21:43:42.544Z,7.33
2022-10-13T21:46:13.566Z,6.47
2022-10-13T21:48:43.321Z,10.93
2022-10-13T21:51:29.529Z,6.30
2022-10-13T21:54:08.346Z,7.80
2022-10-13T21:56:35.796Z,7.60
2022-10-13T21:59:03.840Z,6.10
2022-10-13T22:01:30.696Z,4.93
2022-10-13T22:04:00.733Z,7.33
2022-10-13T22:06:28.822Z,7.77
2022-10-13T22:08:57.633Z,6.43
2022-10-13T22:11:27.608Z,8.10
2022-10-13T22:13:56.640Z,7.97
2022-10-13T22:16:26.473Z,6.43
2022-10-13T22:18:54.820Z,11.57
2022-10-13T22:21:25.105Z,7.88
2022-10-13T22:23:51.847Z,5.20
2022-10-13T22:26:19.131Z,7.78
2022-10-13T22:28:48.478Z,6.77
2022-10-13T22:31:15.518Z,6.87
2022-10-13T22:33:43.690Z,11.45
2022-10-13T22:36:14.528Z,7.05
2022-10-13T22:38:41.743Z,7.45
2022-10-13T22:41:08.859Z,7.37
2022-10-13T22:43:36.605Z,8.67
2022-10-13T22:46:13.474Z,7.57
2022-10-13T22:48:41.759Z,7.90
2022-10-13T22:51:17.101Z,8.52
2022-10-13T22:53:44.583Z,7.90
2022-10-13T22:56:16.868Z,8.37
2022-10-13T22:58:44.402Z,7.97
2022-10-13T23:01:14.631Z,7.07
2022-10-13T23:03:41.737Z,7.95
2022-10-13T23:06:14.078Z,7.57
2022-10-13T23:08:41.033Z,7.03
2022-10-13T23:11:08.332Z,6.63
2022-10-13T23:13:35.085Z,11.63
2022-10-13T23:16:04.406Z,10.25
2022-10-13T23:18:34.393Z,8.40
2022-10-13T23:21:08.328Z,9.83
2022-10-13T23:23:35.141Z,8.47
2022-10-13T23:26:13.438Z,6.93
2022-10-13T23:28:41.562Z,8.68
2022-10-13T23:31:15.061Z,6.33
2022-10-13T23:33:42.776Z,7.30
2022-10-13T23:36:17.116Z,6.60
2022-10-13T23:38:47.631Z,8.67
2022-10-13T23:41:16.345Z,5.60
2022-10-13T23:43:43.590Z,12.23
2022-10-13T23:46:11.043Z,9.10
2022-10-13T23:48:38.735Z,7.27
2022-10-13T23:51:08.717Z,6.77
2022-10-13T23:53:36.820Z,6.60
2022-10-13T23:56:05.225Z,5.90
2022-10-13T23:58:32.393Z,6.70
